createdAt,value
2018-04-09T00:00:18.206Z,8.21
2018-04-09T00:01:26.287Z,8.13
2018-04-09T00:02:34.278Z,8.11
2018-04-09T00:03:42.334Z,8.27
2018-04-09T00:04:50.398Z,8.28
2018-04-09T00:05:58.473Z,8.32
2018-04-09T00:07:06.530Z,8.27
2018-04-09T00:08:14.607Z,8.28
2018-04-09T00:09:22.651Z,8.21
2018-04-09T00:10:30.689Z,8.14
2018-04-09T00:11:38.793Z,8.11
2018-04-09T00:12:46.852Z,8.08
2018-04-09T00:13:54.904Z,7.98
2018-04-09T00:15:02.978Z,7.90
2018-04-09T00:16:11.030Z,7.88
2018-04-09T00:17:19.094Z,7.83
2018-04-09T00:18:27.158Z,7.84
2018-04-09T00:19:35.216Z,7.88
2018-04-09T00:20:43.265Z,7.85
2018-04-09T00:21:51.311Z,7.85
2018-04-09T00:22:59.402Z,7.77
2018-04-09T00:24:07.472Z,7.83
2018-04-09T00:25:15.522Z,7.67
2018-04-09T00:26:23.590Z,7.72
2018-04-09T00:27:31.656Z,7.72
2018-04-09T00:28:39.699Z,7.61
2018-04-09T00:29:47.765Z,7.51
2018-04-09T00:30:55.824Z,7.59
2018-04-09T00:32:03.925Z,7.62
2018-04-09T00:33:11.957Z,7.59
2018-04-09T00:34:19.993Z,7.58
2018-04-09T00:35:28.059Z,7.64
2018-04-09T00:36:36.116Z,7.62
2018-04-09T00:37:44.238Z,7.53
2018-04-09T00:38:52.252Z,7.62
2018-04-09T00:40:00.322Z,7.72
2018-04-09T00:41:08.385Z,7.69
2018-04-09T00:42:16.428Z,7.87
2018-04-09T00:43:24.466Z,7.83
2018-04-09T00:44:32.571Z,7.84
2018-04-09T00:45:40.603Z,7.93
2018-04-09T00:46:48.698Z,8.01
2018-04-09T00:47:56.744Z,8.06
2018-04-09T00:49:04.817Z,8.03
2018-04-09T00:50:13.432Z,8.03
2018-04-09T00:51:20.916Z,8.16
2018-04-09T00:52:28.996Z,8.14
2018-04-09T00:53:37.050Z,8.14
2018-04-09T00:54:45.121Z,8.08
2018-04-09T00:55:53.169Z,8.09
2018-04-09T00:57:01.223Z,8.06
2018-04-09T00:58:09.291Z,7.96
2018-04-09T00:59:17.353Z,8.05
2018-04-09T01:00:25.406Z,8.05
2018-04-09T01:01:33.489Z,7.99
2018-04-09T01:02:41.546Z,7.90
2018-04-09T01:03:49.621Z,7.93
2018-04-09T01:04:57.669Z,7.96
2018-04-09T01:06:05.734Z,7.85
2018-04-09T01:07:13.804Z,7.84
2018-04-09T01:08:21.854Z,7.84
2018-04-09T01:09:29.904Z,7.88
2018-04-09T01:10:37.972Z,7.81
2018-04-09T01:11:46.026Z,7.81
2018-04-09T01:12:54.091Z,7.84
2018-04-09T01:14:02.162Z,7.80
2018-04-09T01:15:10.210Z,7.81
2018-04-09T01:16:18.271Z,7.81
2018-04-09T01:17:26.345Z,7.85
2018-04-09T01:18:34.411Z,7.85
2018-04-09T01:19:42.467Z,7.95
2018-04-09T01:20:50.542Z,7.88
2018-04-09T01:21:58.591Z,7.93
2018-04-09T01:23:06.652Z,7.87
2018-04-09T01:24:14.709Z,7.95
2018-04-09T01:25:22.776Z,7.93
2018-04-09T01:26:30.801Z,7.96
2018-04-09T01:27:38.896Z,7.98
2018-04-09T01:28:46.950Z,8.03
2018-04-09T01:29:55.009Z,8.08
2018-04-09T01:31:03.086Z,7.99
2018-04-09T01:32:11.116Z,8.03
2018-04-09T01:33:19.196Z,8.02
2018-04-09T01:34:27.279Z,7.96
2018-04-09T01:35:35.320Z,7.90
2018-04-09T01:36:43.382Z,7.93
2018-04-09T01:37:51.460Z,7.91
2018-04-09T01:38:59.507Z,7.85
2018-04-09T01:40:07.587Z,7.93
2018-04-09T01:41:15.627Z,7.87
2018-04-09T01:42:23.701Z,7.87
2018-04-09T01:43:31.764Z,7.90
2018-04-09T01:44:39.802Z,7.96
2018-04-09T01:45:47.879Z,7.95
2018-04-09T01:46:55.945Z,7.91
2018-04-09T01:48:04.005Z,7.95
2018-04-09T01:49:12.067Z,7.85
2018-04-09T01:50:20.118Z,7.88
2018-04-09T01:51:28.182Z,7.84
2018-04-09T01:52:36.237Z,7.90
2018-04-09T01:53:44.321Z,7.95
2018-04-09T01:54:52.377Z,7.96
2018-04-09T01:56:00.418Z,7.88
2018-04-09T01:57:08.496Z,7.90
2018-04-09T01:58:16.546Z,7.85
2018-04-09T01:59:24.618Z,7.98
2018-04-09T02:00:32.674Z,7.85
2018-04-09T02:01:40.722Z,7.88
2018-04-09T02:02:48.792Z,7.90
2018-04-09T02:03:56.877Z,7.87
2018-04-09T02:05:04.935Z,7.93
2018-04-09T02:06:12.985Z,7.90
2018-04-09T02:07:21.053Z,7.93
2018-04-09T02:08:29.118Z,7.88
2018-04-09T02:09:37.186Z,7.91
2018-04-09T02:10:45.242Z,8.05
2018-04-09T02:11:53.308Z,8.02
2018-04-09T02:13:01.341Z,8.09
2018-04-09T02:14:09.419Z,8.06
2018-04-09T02:15:17.480Z,8.16
2018-04-09T02:16:25.514Z,8.18
2018-04-09T02:17:33.603Z,8.24
2018-04-09T02:18:41.653Z,8.35
2018-04-09T02:19:49.705Z,8.38
2018-04-09T02:20:57.795Z,8.41
2018-04-09T02:22:05.998Z,8.44
2018-04-09T02:23:13.915Z,8.41
2018-04-09T02:24:21.977Z,8.32
2018-04-09T02:25:30.054Z,8.28
2018-04-09T02:26:38.097Z,8.20
2018-04-09T02:27:46.175Z,8.14
2018-04-09T02:28:54.227Z,8.18
2018-04-09T02:30:02.282Z,8.20
2018-04-09T02:31:10.326Z,7.99
2018-04-09T02:32:18.407Z,8.09
2018-04-09T02:33:26.464Z,7.98
2018-04-09T02:34:34.525Z,7.90
2018-04-09T02:35:42.613Z,7.91
2018-04-09T02:36:50.617Z,7.91
2018-04-09T02:37:58.698Z,7.93
2018-04-09T02:39:06.785Z,7.88
2018-04-09T02:40:14.819Z,7.87
2018-04-09T02:41:22.909Z,7.95
2018-04-09T02:42:30.954Z,8.11
2018-04-09T02:43:39.012Z,8.02
2018-04-09T02:44:47.076Z,8.05
2018-04-09T02:45:55.165Z,8.02
2018-04-09T02:47:03.207Z,8.13
2018-04-09T02:48:11.255Z,8.06
2018-04-09T02:49:19.320Z,8.05
2018-04-09T02:50:27.388Z,8.06
2018-04-09T02:51:35.448Z,7.91
2018-04-09T02:52:43.498Z,8.03
2018-04-09T02:53:51.554Z,8.03
2018-04-09T02:54:59.624Z,8.06
2018-04-09T02:56:07.713Z,8.16
2018-04-09T02:57:15.757Z,8.13
2018-04-09T02:58:23.797Z,8.08
2018-04-09T02:59:31.869Z,8.05
2018-04-09T03:00:39.935Z,7.95
2018-04-09T03:01:47.994Z,7.96
2018-04-09T03:02:56.047Z,8.03
2018-04-09T03:04:04.121Z,7.96
2018-04-09T03:05:12.176Z,8.03
2018-04-09T03:06:20.234Z,7.95
2018-04-09T03:07:28.303Z,8.06
2018-04-09T03:08:36.358Z,7.96
2018-04-09T03:09:44.437Z,7.99
2018-04-09T03:10:52.492Z,8.01
2018-04-09T03:12:00.548Z,7.98
2018-04-09T03:13:08.624Z,7.91
2018-04-09T03:14:16.750Z,7.85
2018-04-09T03:15:24.738Z,7.93
2018-04-09T03:16:32.815Z,7.85
2018-04-09T03:17:40.854Z,7.98
2018-04-09T03:18:48.934Z,7.95
2018-04-09T03:19:57.000Z,8.08
2018-04-09T03:21:05.061Z,8.20
2018-04-09T03:22:13.112Z,8.09
2018-04-09T03:23:21.162Z,8.05
2018-04-09T03:24:29.204Z,8.14
2018-04-09T03:25:37.299Z,8.14
2018-04-09T03:26:45.360Z,8.05
2018-04-09T03:27:53.423Z,8.06
2018-04-09T03:29:01.503Z,7.98
2018-04-09T03:30:09.549Z,7.91
2018-04-09T03:31:17.613Z,7.96
2018-04-09T03:32:25.667Z,7.93
2018-04-09T03:33:33.729Z,7.88
2018-04-09T03:34:41.803Z,8.02
2018-04-09T03:35:49.861Z,7.93
2018-04-09T03:36:57.921Z,7.88
2018-04-09T03:38:05.979Z,8.02
2018-04-09T03:39:14.042Z,8.01
2018-04-09T03:40:22.105Z,7.96
2018-04-09T03:41:30.163Z,8.01
2018-04-09T03:42:38.211Z,8.13
2018-04-09T03:43:46.297Z,8.13
2018-04-09T03:44:54.323Z,8.21
2018-04-09T03:46:02.407Z,8.11
2018-04-09T03:47:10.458Z,8.17
2018-04-09T03:48:18.519Z,8.11
2018-04-09T03:49:26.565Z,8.21
2018-04-09T03:50:34.649Z,8.20
2018-04-09T03:51:42.708Z,8.09
2018-04-09T03:52:50.729Z,8.05
2018-04-09T03:53:58.832Z,7.99
2018-04-09T03:55:06.996Z,7.93
2018-04-09T03:56:14.952Z,7.91
2018-04-09T03:57:23.029Z,7.85
2018-04-09T03:58:31.054Z,7.85
2018-04-09T03:59:39.145Z,7.85
2018-04-09T04:00:47.213Z,7.83
2018-04-09T04:01:55.263Z,7.81
2018-04-09T04:03:03.342Z,7.88
2018-04-09T04:04:11.376Z,7.98
2018-04-09T04:05:19.443Z,7.99
2018-04-09T04:06:27.495Z,7.88
2018-04-09T04:07:35.568Z,7.84
2018-04-09T04:08:43.627Z,7.91
2018-04-09T04:09:51.731Z,7.81
2018-04-09T04:10:59.744Z,7.78
2018-04-09T04:12:07.818Z,7.78
2018-04-09T04:13:15.885Z,7.87
2018-04-09T04:14:23.935Z,7.85
2018-04-09T04:15:31.979Z,7.81
2018-04-09T04:16:40.056Z,7.84
2018-04-09T04:17:48.115Z,7.88
2018-04-09T04:18:56.196Z,8.06
2018-04-09T04:20:04.237Z,8.01
2018-04-09T04:21:12.300Z,8.08
2018-04-09T04:22:20.372Z,8.05
2018-04-09T04:23:28.471Z,7.99
2018-04-09T04:24:36.494Z,7.95
2018-04-09T04:25:44.559Z,7.88
2018-04-09T04:26:52.615Z,7.84
2018-04-09T04:28:00.663Z,7.85
2018-04-09T04:29:08.735Z,7.67
2018-04-09T04:30:16.808Z,7.66
2018-04-09T04:31:25.017Z,7.75
2018-04-09T04:32:32.933Z,7.74
2018-04-09T04:33:40.964Z,7.70
2018-04-09T04:34:49.057Z,7.74
2018-04-09T04:35:57.123Z,7.72
2018-04-09T04:37:05.375Z,7.74
2018-04-09T04:38:13.230Z,7.66
2018-04-09T04:39:21.325Z,7.70
2018-04-09T04:40:29.371Z,7.84
2018-04-09T04:41:37.423Z,7.85
2018-04-09T04:42:45.488Z,7.83
2018-04-09T04:43:53.546Z,7.90
2018-04-09T04:45:02.087Z,7.91
2018-04-09T04:46:09.701Z,7.93
2018-04-09T04:47:17.941Z,8.06
2018-04-09T04:48:25.776Z,8.09
2018-04-09T04:49:33.850Z,8.03
2018-04-09T04:50:41.929Z,8.01
2018-04-09T04:51:49.977Z,8.05
2018-04-09T04:52:58.083Z,8.05
2018-04-09T04:54:06.110Z,8.08
2018-04-09T04:55:14.159Z,8.11
2018-04-09T04:56:22.226Z,7.95
2018-04-09T04:57:30.564Z,7.98
2018-04-09T04:58:38.350Z,8.03
2018-04-09T04:59:46.410Z,8.05
2018-04-09T05:00:54.469Z,7.99
2018-04-09T05:02:02.542Z,8.05
2018-04-09T05:03:10.868Z,8.02
2018-04-09T05:04:19.007Z,8.06
2018-04-09T05:05:26.773Z,8.17
2018-04-09T05:06:34.787Z,8.09
2018-04-09T05:07:42.847Z,8.09
2018-04-09T05:08:50.913Z,8.11
2018-04-09T05:09:59.022Z,8.16
2018-04-09T05:11:07.026Z,8.18
2018-04-09T05:12:15.103Z,8.17
2018-04-09T05:13:23.159Z,8.08
2018-04-09T05:14:31.218Z,8.17
2018-04-09T05:15:39.270Z,8.16
2018-04-09T05:16:47.337Z,8.23
2018-04-09T05:17:55.422Z,8.23
2018-04-09T05:19:03.472Z,8.24
2018-04-09T05:20:11.529Z,8.27
2018-04-09T05:21:19.596Z,8.27
2018-04-09T05:22:27.656Z,8.35
2018-04-09T05:23:35.735Z,8.36
2018-04-09T05:24:43.794Z,8.45
2018-04-09T05:25:51.848Z,8.41
2018-04-09T05:26:59.930Z,8.42
2018-04-09T05:28:07.973Z,8.42
2018-04-09T05:29:16.032Z,8.46
2018-04-09T05:30:24.108Z,8.53
2018-04-09T05:31:32.146Z,8.56
2018-04-09T05:32:40.211Z,8.57
2018-04-09T05:33:48.264Z,8.54
2018-04-09T05:34:56.341Z,8.64
2018-04-09T05:36:04.413Z,8.64
2018-04-09T05:37:12.471Z,8.66
2018-04-09T05:38:20.518Z,8.64
2018-04-09T05:39:28.581Z,8.69
2018-04-09T05:40:36.656Z,8.71
2018-04-09T05:41:44.717Z,8.69
2018-04-09T05:42:52.784Z,8.68
2018-04-09T05:44:00.825Z,8.68
2018-04-09T05:45:08.899Z,8.63
2018-04-09T05:46:16.969Z,8.64
2018-04-09T05:47:25.026Z,8.59
2018-04-09T05:48:33.086Z,8.61
2018-04-09T05:49:41.165Z,8.53
2018-04-09T05:50:49.220Z,8.59
2018-04-09T05:51:57.295Z,8.61
2018-04-09T05:53:05.369Z,8.64
2018-04-09T05:54:13.411Z,8.74
2018-04-09T05:55:21.454Z,8.68
2018-04-09T05:56:29.525Z,8.66
2018-04-09T05:57:37.587Z,8.82
2018-04-09T05:58:45.669Z,8.72
2018-04-09T05:59:53.720Z,8.74
2018-04-09T06:01:01.783Z,8.77
2018-04-09T06:02:09.831Z,8.77
2018-04-09T06:03:17.919Z,8.82
2018-04-09T06:04:25.990Z,8.82
2018-04-09T06:05:34.093Z,8.82
2018-04-09T06:06:42.103Z,8.78
2018-04-09T06:07:50.143Z,8.95
2018-04-09T06:08:58.232Z,8.93
2018-04-09T06:10:06.287Z,8.93
2018-04-09T06:11:14.354Z,8.97
2018-04-09T06:12:22.407Z,9.15
2018-04-09T06:13:30.452Z,9.19
2018-04-09T06:14:38.539Z,9.19
2018-04-09T06:15:46.590Z,9.26
2018-04-09T06:16:54.666Z,9.22
2018-04-09T06:18:02.733Z,9.21
2018-04-09T06:19:10.777Z,9.36
2018-04-09T06:20:21.634Z,9.29
2018-04-09T06:21:26.907Z,9.31
2018-04-09T06:22:34.991Z,9.34
2018-04-09T06:23:43.017Z,9.37
2018-04-09T06:24:51.111Z,9.40
2018-04-09T06:25:59.169Z,9.39
2018-04-09T06:27:07.241Z,9.45
2018-04-09T06:28:15.324Z,9.59
2018-04-09T06:29:23.354Z,9.51
2018-04-09T06:30:31.398Z,9.58
2018-04-09T06:31:39.474Z,9.64
2018-04-09T06:32:47.557Z,9.73
2018-04-09T06:33:55.607Z,9.72
2018-04-09T06:35:03.685Z,9.77
2018-04-09T06:36:11.736Z,9.88
2018-04-09T06:37:19.823Z,9.87
2018-04-09T06:38:27.871Z,9.91
2018-04-09T06:39:35.931Z,9.97
2018-04-09T06:40:43.988Z,9.95
2018-04-09T06:41:52.071Z,9.97
2018-04-09T06:43:00.121Z,10.00
2018-04-09T06:44:08.168Z,10.03
2018-04-09T06:45:16.551Z,10.07
2018-04-09T06:46:24.316Z,10.12
2018-04-09T06:47:32.369Z,10.12
2018-04-09T06:48:40.470Z,10.18
2018-04-09T06:49:48.518Z,10.27
2018-04-09T06:50:56.567Z,10.36
2018-04-09T06:52:04.642Z,10.43
2018-04-09T06:53:12.668Z,10.48
2018-04-09T06:54:20.735Z,10.57
2018-04-09T06:55:28.814Z,10.64
2018-04-09T06:56:36.902Z,10.69
2018-04-09T06:57:44.943Z,10.77
2018-04-09T06:58:53.014Z,10.90
2018-04-09T07:00:01.080Z,11.01
2018-04-09T07:01:09.128Z,11.08
2018-04-09T07:02:17.228Z,11.18
2018-04-09T07:03:25.274Z,11.22
2018-04-09T07:04:33.331Z,11.25
2018-04-09T07:05:41.388Z,11.31
2018-04-09T07:06:49.451Z,11.40
2018-04-09T07:07:57.535Z,11.43
2018-04-09T07:09:05.601Z,11.41
2018-04-09T07:10:13.669Z,11.45
2018-04-09T07:11:21.725Z,11.49
2018-04-09T07:12:29.780Z,11.53
2018-04-09T07:13:37.856Z,11.35
2018-04-09T07:14:45.916Z,11.43
2018-04-09T07:15:54.042Z,11.48
2018-04-09T07:17:02.050Z,11.45
2018-04-09T07:18:10.116Z,11.55
2018-04-09T07:19:18.182Z,11.62
2018-04-09T07:20:26.244Z,11.59
2018-04-09T07:21:34.310Z,11.71
2018-04-09T07:22:42.372Z,11.81
2018-04-09T07:23:50.419Z,11.89
2018-04-09T07:24:58.571Z,11.91
2018-04-09T07:26:06.577Z,12.10
2018-04-09T07:27:14.638Z,12.08
2018-04-09T07:28:22.697Z,12.11
2018-04-09T07:29:30.757Z,12.21
2018-04-09T07:30:38.833Z,12.07
2018-04-09T07:31:46.905Z,12.21
2018-04-09T07:32:54.969Z,12.18
2018-04-09T07:34:03.028Z,12.35
2018-04-09T07:35:11.074Z,12.30
2018-04-09T07:36:19.142Z,12.33
2018-04-09T07:37:27.226Z,12.40
2018-04-09T07:38:35.295Z,12.44
2018-04-09T07:39:43.358Z,12.48
2018-04-09T07:40:51.402Z,12.58
2018-04-09T07:41:59.482Z,12.55
2018-04-09T07:43:07.539Z,12.57
2018-04-09T07:44:15.679Z,12.63
2018-04-09T07:45:23.693Z,12.65
2018-04-09T07:46:31.761Z,12.83
2018-04-09T07:47:39.817Z,12.91
2018-04-09T07:48:47.903Z,13.05
2018-04-09T07:49:55.951Z,13.05
2018-04-09T07:51:04.014Z,13.19
2018-04-09T07:52:12.094Z,13.27
2018-04-09T07:53:20.144Z,13.39
2018-04-09T07:54:28.203Z,13.45
2018-04-09T07:55:36.284Z,13.43
2018-04-09T07:56:44.352Z,13.50
2018-04-09T07:57:52.432Z,13.57
2018-04-09T07:59:00.508Z,13.54
2018-04-09T08:00:08.555Z,13.64
2018-04-09T08:01:16.634Z,13.71
2018-04-09T08:02:24.705Z,13.76
2018-04-09T08:03:32.756Z,13.80
2018-04-09T08:04:40.797Z,13.93
2018-04-09T08:05:48.870Z,13.91
2018-04-09T08:06:56.958Z,14.01
2018-04-09T08:08:05.004Z,14.04
2018-04-09T08:09:13.098Z,14.12
2018-04-09T08:10:21.118Z,14.07
2018-04-09T08:11:29.205Z,14.18
2018-04-09T08:12:37.286Z,14.26
2018-04-09T08:13:45.348Z,14.22
2018-04-09T08:14:53.415Z,14.20
2018-04-09T08:16:01.489Z,14.11
2018-04-09T08:17:09.559Z,14.19
2018-04-09T08:18:17.622Z,14.23
2018-04-09T08:19:25.710Z,14.25
2018-04-09T08:20:33.756Z,14.37
2018-04-09T08:21:41.908Z,14.41
2018-04-09T08:22:49.890Z,14.44
2018-04-09T08:23:57.972Z,14.53
2018-04-09T08:25:06.071Z,14.59
2018-04-09T08:26:14.084Z,14.62
2018-04-09T08:27:22.169Z,14.49
2018-04-09T08:28:30.219Z,14.61
2018-04-09T08:29:38.282Z,14.61
2018-04-09T08:30:46.360Z,14.68
2018-04-09T08:31:54.445Z,14.67
2018-04-09T08:33:02.503Z,14.67
2018-04-09T08:34:10.550Z,14.70
2018-04-09T08:35:18.626Z,14.85
2018-04-09T08:36:26.696Z,14.89
2018-04-09T08:37:34.788Z,14.94
2018-04-09T08:38:42.845Z,15.02
2018-04-09T08:39:50.934Z,15.08
2018-04-09T08:40:58.977Z,15.10
2018-04-09T08:42:07.059Z,15.14
2018-04-09T08:43:15.120Z,15.27
2018-04-09T08:44:23.180Z,15.23
2018-04-09T08:45:31.258Z,15.19
2018-04-09T08:46:39.320Z,15.19
2018-04-09T08:47:47.403Z,15.18
2018-04-09T08:48:55.490Z,15.27
2018-04-09T08:50:03.523Z,15.26
2018-04-09T08:51:11.602Z,15.37
2018-04-09T08:52:19.675Z,15.35
2018-04-09T08:53:27.733Z,15.36
2018-04-09T08:54:35.816Z,15.32
2018-04-09T08:55:43.877Z,15.27
2018-04-09T08:56:51.953Z,15.35
2018-04-09T08:58:03.482Z,15.33
2018-04-09T08:59:08.198Z,15.30
2018-04-09T09:00:16.117Z,15.33
2018-04-09T09:01:24.250Z,15.26
2018-04-09T09:02:32.276Z,15.33
2018-04-09T09:03:40.326Z,15.37
2018-04-09T09:04:48.443Z,15.57
2018-04-09T09:05:56.476Z,15.52
2018-04-09T09:07:04.542Z,15.75
2018-04-09T09:08:12.630Z,15.84
2018-04-09T09:09:20.828Z,15.92
2018-04-09T09:10:28.762Z,16.03
2018-04-09T09:11:36.824Z,16.16
2018-04-09T09:12:44.898Z,16.31
2018-04-09T09:13:52.950Z,16.43
2018-04-09T09:15:01.067Z,16.49
2018-04-09T09:16:09.120Z,16.73
2018-04-09T09:17:17.183Z,16.79
2018-04-09T09:18:25.242Z,16.94
2018-04-09T09:19:33.321Z,16.99
2018-04-09T09:20:41.369Z,17.01
2018-04-09T09:21:49.459Z,16.97
2018-04-09T09:22:57.530Z,17.13
2018-04-09T09:24:05.598Z,17.17
2018-04-09T09:25:13.677Z,17.30
2018-04-09T09:26:21.751Z,17.16
2018-04-09T09:27:29.805Z,17.27
2018-04-09T09:28:37.880Z,17.38
2018-04-09T09:29:45.940Z,17.47
2018-04-09T09:30:54.022Z,17.44
2018-04-09T09:32:02.083Z,17.50
2018-04-09T09:33:10.148Z,17.56
2018-04-09T09:34:18.235Z,17.66
2018-04-09T09:35:26.305Z,17.57
2018-04-09T09:36:34.384Z,17.63
2018-04-09T09:37:42.448Z,17.73
2018-04-09T09:38:50.505Z,17.84
2018-04-09T09:39:58.593Z,17.76
2018-04-09T09:41:06.661Z,17.76
2018-04-09T09:42:14.724Z,17.90
2018-04-09T09:43:22.836Z,17.95
2018-04-09T09:44:30.846Z,17.93
2018-04-09T09:45:38.927Z,17.94
2018-04-09T09:46:47.008Z,18.08
2018-04-09T09:47:55.076Z,18.05
2018-04-09T09:49:03.145Z,18.11
2018-04-09T09:50:11.202Z,18.19
2018-04-09T09:51:19.293Z,18.33
2018-04-09T09:52:27.412Z,18.31
2018-04-09T09:53:35.418Z,18.41
2018-04-09T09:54:43.496Z,18.52
2018-04-09T09:55:51.623Z,18.71
2018-04-09T09:56:59.630Z,18.79
2018-04-09T09:58:07.706Z,18.68
2018-04-09T09:59:15.774Z,18.85
2018-04-09T10:00:23.865Z,18.97
2018-04-09T10:01:31.914Z,18.81
2018-04-09T10:02:39.997Z,18.83
2018-04-09T10:03:48.074Z,18.97
2018-04-09T10:04:56.145Z,18.89
2018-04-09T10:06:04.213Z,18.91
2018-04-09T10:07:12.287Z,18.81
2018-04-09T10:08:20.381Z,18.86
2018-04-09T10:09:28.416Z,18.96
2018-04-09T10:10:36.490Z,19.01
2018-04-09T10:11:44.569Z,18.89
2018-04-09T10:12:52.632Z,19.00
2018-04-09T10:14:00.705Z,18.94
2018-04-09T10:15:08.778Z,18.94
2018-04-09T10:16:16.862Z,18.91
2018-04-09T10:17:24.920Z,18.81
2018-04-09T10:18:33.020Z,18.96
2018-04-09T10:19:41.063Z,19.08
2018-04-09T10:20:49.158Z,19.11
2018-04-09T10:21:57.211Z,19.15
2018-04-09T10:23:05.294Z,19.23
2018-04-09T10:24:13.362Z,19.24
2018-04-09T10:25:21.412Z,19.23
2018-04-09T10:26:29.496Z,19.23
2018-04-09T10:27:37.574Z,19.11
2018-04-09T10:28:45.649Z,19.19
2018-04-09T10:29:53.713Z,19.11
2018-04-09T10:31:01.783Z,19.27
2018-04-09T10:32:09.863Z,19.48
2018-04-09T10:33:17.933Z,19.38
2018-04-09T10:34:26.039Z,19.41
2018-04-09T10:35:34.130Z,19.39
2018-04-09T10:36:42.145Z,19.56
2018-04-09T10:37:50.212Z,19.62
2018-04-09T10:38:58.280Z,19.62
2018-04-09T10:40:06.363Z,19.70
2018-04-09T10:41:14.428Z,19.70
2018-04-09T10:42:22.504Z,19.70
2018-04-09T10:43:30.591Z,19.87
2018-04-09T10:44:38.675Z,19.89
2018-04-09T10:45:46.738Z,20.02
2018-04-09T10:46:54.792Z,20.04
2018-04-09T10:48:02.868Z,20.21
2018-04-09T10:49:10.913Z,20.33
2018-04-09T10:50:19.006Z,20.33
2018-04-09T10:51:27.078Z,20.48
2018-04-09T10:52:35.170Z,20.52
2018-04-09T10:53:43.232Z,20.49
2018-04-09T10:54:51.302Z,20.60
2018-04-09T10:55:59.382Z,20.71
2018-04-09T10:57:07.448Z,20.70
2018-04-09T10:58:15.527Z,20.66
2018-04-09T10:59:23.884Z,20.66
2018-04-09T11:00:31.939Z,20.75
2018-04-09T11:01:40.021Z,20.75
2018-04-09T11:02:48.081Z,20.83
2018-04-09T11:03:56.160Z,20.73
2018-04-09T11:05:03.969Z,20.68
2018-04-09T11:06:12.021Z,20.82
2018-04-09T11:07:20.087Z,20.80
2018-04-09T11:08:28.186Z,20.85
2018-04-09T11:09:36.228Z,20.78
2018-04-09T11:10:44.398Z,20.93
2018-04-09T11:11:52.394Z,20.90
2018-04-09T11:13:00.515Z,21.03
2018-04-09T11:14:08.551Z,21.03
2018-04-09T11:16:24.411Z,20.95
2018-04-09T11:18:40.543Z,21.10
2018-04-09T11:19:48.643Z,21.14
2018-04-09T11:20:56.716Z,21.20
2018-04-09T11:22:04.872Z,21.33
2018-04-09T11:23:12.847Z,21.30
2018-04-09T11:24:20.908Z,21.29
2018-04-09T11:25:29.003Z,21.30
2018-04-09T11:26:37.070Z,21.40
2018-04-09T11:27:45.142Z,21.48
2018-04-09T11:28:53.229Z,21.30
2018-04-09T11:30:01.288Z,21.22
2018-04-09T11:31:09.372Z,21.19
2018-04-09T11:32:17.440Z,21.19
2018-04-09T11:33:25.506Z,21.20
2018-04-09T11:34:33.589Z,21.15
2018-04-09T11:35:41.656Z,21.30
2018-04-09T11:36:49.737Z,21.37
2018-04-09T11:37:57.823Z,21.30
2018-04-09T11:39:05.909Z,21.37
2018-04-09T11:40:13.959Z,21.37
2018-04-09T11:41:22.018Z,21.23
2018-04-09T11:42:30.111Z,21.19
2018-04-09T11:43:38.170Z,21.04
2018-04-09T11:44:46.238Z,21.01
2018-04-09T11:45:54.323Z,21.07
2018-04-09T11:47:02.475Z,21.14
2018-04-09T11:48:10.456Z,21.07
2018-04-09T11:49:18.538Z,21.10
2018-04-09T11:50:26.640Z,21.05
2018-04-09T11:51:34.692Z,20.96
2018-04-09T11:52:42.758Z,21.03
2018-04-09T11:54:58.909Z,20.92
2018-04-09T11:56:07.013Z,21.07
2018-04-09T11:57:19.579Z,21.15
2018-04-09T11:58:23.123Z,21.33
2018-04-09T11:59:31.231Z,21.37
2018-04-09T12:00:39.273Z,21.50
2018-04-09T12:01:47.858Z,21.58
2018-04-09T12:02:55.419Z,21.59
2018-04-09T12:04:03.493Z,21.62
2018-04-09T12:05:11.548Z,21.63
2018-04-09T12:06:19.630Z,21.58
2018-04-09T12:07:27.749Z,21.43
2018-04-09T12:08:35.781Z,21.30
2018-04-09T12:09:43.861Z,21.32
2018-04-09T12:10:53.553Z,21.32
2018-04-09T12:12:00.023Z,21.30
2018-04-09T12:13:08.100Z,21.29
2018-04-09T12:14:16.159Z,21.26
2018-04-09T12:15:24.212Z,21.17
2018-04-09T12:16:32.293Z,21.10
2018-04-09T12:17:40.406Z,20.98
2018-04-09T12:18:48.432Z,21.03
2018-04-09T12:19:56.519Z,20.92
2018-04-09T12:21:04.615Z,20.96
2018-04-09T12:22:12.664Z,20.98
2018-04-09T12:23:20.731Z,20.92
2018-04-09T12:24:28.817Z,20.98
2018-04-09T12:25:36.883Z,20.92
2018-04-09T12:26:44.950Z,20.90
2018-04-09T12:27:53.026Z,20.96
2018-04-09T12:29:01.074Z,21.01
2018-04-09T12:30:09.165Z,20.95
2018-04-09T12:31:17.253Z,20.90
2018-04-09T12:32:25.334Z,20.83
2018-04-09T12:33:33.388Z,20.89
2018-04-09T12:34:41.435Z,20.89
2018-04-09T12:35:49.537Z,20.90
2018-04-09T12:36:57.625Z,20.82
2018-04-09T12:38:05.679Z,20.75
2018-04-09T12:39:13.757Z,20.71
2018-04-09T12:40:21.807Z,20.64
2018-04-09T12:41:29.899Z,20.52
2018-04-09T12:42:37.993Z,20.48
2018-04-09T12:43:46.043Z,20.44
2018-04-09T12:44:54.117Z,20.46
2018-04-09T12:46:02.196Z,20.44
2018-04-09T12:47:10.269Z,20.32
2018-04-09T12:48:18.333Z,20.36
2018-04-09T12:49:26.404Z,20.18
2018-04-09T12:50:34.488Z,20.21
2018-04-09T12:51:42.558Z,20.12
2018-04-09T12:52:50.668Z,20.17
2018-04-09T12:53:58.693Z,20.14
2018-04-09T12:55:06.770Z,20.02
2018-04-09T12:56:14.857Z,20.12
2018-04-09T12:57:22.908Z,20.08
2018-04-09T12:58:30.949Z,20.08
2018-04-09T12:59:39.048Z,20.10
2018-04-09T13:00:47.122Z,20.10
2018-04-09T13:01:55.196Z,20.15
2018-04-09T13:03:03.270Z,20.10
2018-04-09T13:04:11.306Z,20.17
2018-04-09T13:05:19.408Z,20.10
2018-04-09T13:06:27.479Z,20.15
2018-04-09T13:07:35.549Z,20.17
2018-04-09T13:08:43.616Z,20.27
2018-04-09T13:09:51.671Z,20.33
2018-04-09T13:10:59.769Z,20.42
2018-04-09T13:12:07.835Z,20.49
2018-04-09T13:13:15.992Z,20.68
2018-04-09T13:14:23.986Z,20.68
2018-04-09T13:15:32.055Z,20.77
2018-04-09T13:16:40.131Z,20.90
2018-04-09T13:17:48.206Z,20.95
2018-04-09T13:18:56.270Z,21.07
2018-04-09T13:20:04.336Z,21.03
2018-04-09T13:21:12.410Z,21.13
2018-04-09T13:22:20.488Z,21.14
2018-04-09T13:23:28.557Z,21.19
2018-04-09T13:24:36.609Z,21.28
2018-04-09T13:25:44.701Z,21.26
2018-04-09T13:26:52.768Z,21.07
2018-04-09T13:28:00.825Z,21.05
2018-04-09T13:29:08.919Z,21.00
2018-04-09T13:30:16.989Z,20.95
2018-04-09T13:31:25.060Z,21.03
2018-04-09T13:32:33.118Z,21.23
2018-04-09T13:33:41.178Z,21.25
2018-04-09T13:34:49.276Z,21.38
2018-04-09T13:35:57.359Z,21.59
2018-04-09T13:37:05.417Z,21.60
2018-04-09T13:38:13.495Z,21.68
2018-04-09T13:39:21.535Z,21.74
2018-04-09T13:40:29.645Z,21.74
2018-04-09T13:41:39.583Z,22.07
2018-04-09T13:42:45.796Z,22.01
2018-04-09T13:43:53.861Z,21.94
2018-04-09T13:45:01.930Z,22.00
2018-04-09T13:46:10.006Z,21.91
2018-04-09T13:47:18.063Z,21.99
2018-04-09T13:48:26.146Z,21.96
2018-04-09T13:49:34.219Z,21.99
2018-04-09T13:50:42.302Z,21.80
2018-04-09T13:51:50.388Z,21.80
2018-04-09T13:52:58.435Z,21.77
2018-04-09T13:54:06.511Z,21.85
2018-04-09T13:55:14.592Z,21.85
2018-04-09T13:56:22.666Z,21.83
2018-04-09T13:57:30.739Z,21.75
2018-04-09T13:58:38.812Z,21.69
2018-04-09T13:59:46.883Z,21.63
2018-04-09T14:00:54.946Z,21.69
2018-04-09T14:02:03.024Z,21.58
2018-04-09T14:03:11.078Z,21.68
2018-04-09T14:04:19.171Z,21.63
2018-04-09T14:05:27.243Z,21.65
2018-04-09T14:06:35.323Z,21.63
2018-04-09T14:07:43.394Z,21.56
2018-04-09T14:08:51.430Z,21.33
2018-04-09T14:09:59.536Z,21.35
2018-04-09T14:11:07.601Z,21.14
2018-04-09T14:12:15.683Z,21.13
2018-04-09T14:13:23.754Z,21.10
2018-04-09T14:14:31.822Z,20.98
2018-04-09T14:15:39.907Z,20.83
2018-04-09T14:16:47.979Z,20.86
2018-04-09T14:17:56.049Z,20.73
2018-04-09T14:19:04.121Z,20.74
2018-04-09T14:20:12.196Z,20.71
2018-04-09T14:21:20.256Z,20.60
2018-04-09T14:22:28.351Z,20.53
2018-04-09T14:23:36.404Z,20.55
2018-04-09T14:24:44.474Z,20.59
2018-04-09T14:25:52.544Z,20.44
2018-04-09T14:27:00.627Z,20.46
2018-04-09T14:28:08.706Z,20.32
2018-04-09T14:29:16.762Z,20.49
2018-04-09T14:30:24.829Z,20.42
2018-04-09T14:31:32.906Z,20.29
2018-04-09T14:32:40.955Z,20.34
2018-04-09T14:33:49.056Z,20.37
2018-04-09T14:34:57.133Z,20.33
2018-04-09T14:36:05.204Z,20.29
2018-04-09T14:37:13.273Z,20.37
2018-04-09T14:38:21.313Z,20.46
2018-04-09T14:39:29.417Z,20.26
2018-04-09T14:40:37.490Z,20.26
2018-04-09T14:41:45.558Z,20.21
2018-04-09T14:42:53.622Z,20.11
2018-04-09T14:44:01.684Z,20.02
2018-04-09T14:45:09.774Z,20.12
2018-04-09T14:46:17.837Z,20.14
2018-04-09T14:47:25.910Z,20.12
2018-04-09T14:48:33.980Z,20.14
2018-04-09T14:49:42.042Z,20.12
2018-04-09T14:50:50.122Z,20.07
2018-04-09T14:51:58.201Z,20.14
2018-04-09T14:53:06.260Z,20.10